sensor_id;sensor_type;location;lat;lon;timestamp;P1;durP1;ratioP1;P2;durP2;ratioP2
19940;SDS011;10132;50.864;5.176;2022-11-03T00:00:19;12.90;;;4.10;;
19940;SDS011;10132;50.864;5.176;2022-11-03T00:02:21;12.90;;;3.53;;
19940;SDS011;10132;50.864;5.176;2022-11-03T00:04:22;12.10;;;3.50;;
19940;SDS011;10132;50.864;5.176;2022-11-03T00:06:24;11.10;;;3.83;;
19940;SDS011;10132;50.864;5.176;2022-11-03T00:08:25;11.10;;;3.37;;
19940;SDS011;10132;50.864;5.176;2022-11-03T00:10:27;14.00;;;3.40;;
19940;SDS011;10132;50.864;5.176;2022-11-03T00:12:31;12.80;;;3.00;;
19940;SDS011;10132;50.864;5.176;2022-11-03T00:14:33;14.40;;;3.17;;
19940;SDS011;10132;50.864;5.176;2022-11-03T00:16:35;16.30;;;3.17;;
19940;SDS011;10132;50.864;5.176;2022-11-03T00:18:38;10.63;;;3.57;;
19940;SDS011;10132;50.864;5.176;2022-11-03T00:20:40;11.07;;;3.10;;
19940;SDS011;10132;50.864;5.176;2022-11-03T00:22:41;14.30;;;4.17;;
19940;SDS011;10132;50.864;5.176;2022-11-03T00:24:44;12.90;;;3.40;;
19940;SDS011;10132;50.864;5.176;2022-11-03T00:26:45;12.17;;;2.93;;
19940;SDS011;10132;50.864;5.176;2022-11-03T00:28:49;13.73;;;2.90;;
19940;SDS011;10132;50.864;5.176;2022-11-03T00:30:52;11.97;;;2.57;;
19940;SDS011;10132;50.864;5.176;2022-11-03T00:32:54;10.97;;;3.10;;
19940;SDS011;10132;50.864;5.176;2022-11-03T00:34:56;12.70;;;3.23;;
19940;SDS011;10132;50.864;5.176;2022-11-03T00:36:58;14.23;;;3.80;;
19940;SDS011;10132;50.864;5.176;2022-11-03T00:39:00;11.37;;;3.10;;
19940;SDS011;10132;50.864;5.176;2022-11-03T00:41:02;12.80;;;3.23;;
19940;SDS011;10132;50.864;5.176;2022-11-03T00:43:05;11.73;;;3.10;;
19940;SDS011;10132;50.864;5.176;2022-11-03T00:45:09;11.97;;;3.17;;
19940;SDS011;10132;50.864;5.176;2022-11-03T00:47:11;11.10;;;2.73;;
19940;SDS011;10132;50.864;5.176;2022-11-03T00:49:13;9.93;;;3.10;;
19940;SDS011;10132;50.864;5.176;2022-11-03T00:51:15;12.47;;;3.40;;
19940;SDS011;10132;50.864;5.176;2022-11-03T00:53:18;12.63;;;3.17;;
19940;SDS011;10132;50.864;5.176;2022-11-03T00:55:20;11.30;;;2.80;;
19940;SDS011;10132;50.864;5.176;2022-11-03T00:57:22;13.83;;;3.17;;
19940;SDS011;10132;50.864;5.176;2022-11-03T00:59:24;10.63;;;3.37;;
19940;SDS011;10132;50.864;5.176;2022-11-03T01:01:28;12.63;;;3.23;;
19940;SDS011;10132;50.864;5.176;2022-11-03T01:03:31;10.87;;;3.73;;
19940;SDS011;10132;50.864;5.176;2022-11-03T01:05:34;12.07;;;3.53;;
19940;SDS011;10132;50.864;5.176;2022-11-03T01:07:58;8.77;;;3.33;;
19940;SDS011;10132;50.864;5.176;2022-11-03T01:09:59;9.17;;;2.93;;
19940;SDS011;10132;50.864;5.176;2022-11-03T01:12:02;12.67;;;3.33;;
19940;SDS011;10132;50.864;5.176;2022-11-03T01:14:06;13.17;;;3.00;;
19940;SDS011;10132;50.864;5.176;2022-11-03T01:16:08;9.27;;;3.13;;
19940;SDS011;10132;50.864;5.176;2022-11-03T01:18:12;11.37;;;2.93;;
19940;SDS011;10132;50.864;5.176;2022-11-03T01:20:14;14.90;;;3.50;;
19940;SDS011;10132;50.864;5.176;2022-11-03T01:22:16;10.93;;;3.33;;
19940;SDS011;10132;50.864;5.176;2022-11-03T01:24:19;9.73;;;3.20;;
19940;SDS011;10132;50.864;5.176;2022-11-03T01:26:21;13.70;;;3.33;;
19940;SDS011;10132;50.864;5.176;2022-11-03T01:28:23;12.33;;;3.60;;
19940;SDS011;10132;50.864;5.176;2022-11-03T01:30:25;8.77;;;3.33;;
19940;SDS011;10132;50.864;5.176;2022-11-03T01:32:27;13.60;;;3.47;;
19940;SDS011;10132;50.864;5.176;2022-11-03T01:34:31;13.80;;;3.37;;
19940;SDS011;10132;50.864;5.176;2022-11-03T01:36:33;11.90;;;3.03;;
19940;SDS011;10132;50.864;5.176;2022-11-03T01:38:35;12.53;;;3.50;;
19940;SDS011;10132;50.864;5.176;2022-11-03T01:40:37;13.27;;;3.80;;
19940;SDS011;10132;50.864;5.176;2022-11-03T01:42:39;12.43;;;3.17;;
19940;SDS011;10132;50.864;5.176;2022-11-03T01:44:42;12.10;;;3.87;;
19940;SDS011;10132;50.864;5.176;2022-11-03T01:46:48;9.30;;;3.07;;
19940;SDS011;10132;50.864;5.176;2022-11-03T01:48:55;8.40;;;2.93;;
19940;SDS011;10132;50.864;5.176;2022-11-03T01:51:01;12.50;;;3.33;;
19940;SDS011;10132;50.864;5.176;2022-11-03T01:53:06;13.13;;;3.30;;
19940;SDS011;10132;50.864;5.176;2022-11-03T01:55:10;12.70;;;3.43;;
19940;SDS011;10132;50.864;5.176;2022-11-03T01:57:18;13.97;;;3.63;;
19940;SDS011;10132;50.864;5.176;2022-11-03T01:59:24;12.63;;;3.40;;
19940;SDS011;10132;50.864;5.176;2022-11-03T02:01:28;10.67;;;3.10;;
19940;SDS011;10132;50.864;5.176;2022-11-03T02:03:31;11.53;;;4.20;;
19940;SDS011;10132;50.864;5.176;2022-11-03T02:05:37;11.23;;;3.60;;
19940;SDS011;10132;50.864;5.176;2022-11-03T02:07:42;10.27;;;3.23;;
19940;SDS011;10132;50.864;5.176;2022-11-03T02:09:47;12.53;;;3.40;;
19940;SDS011;10132;50.864;5.176;2022-11-03T02:11:49;12.93;;;3.30;;
19940;SDS011;10132;50.864;5.176;2022-11-03T02:14:09;10.97;;;3.20;;
19940;SDS011;10132;50.864;5.176;2022-11-03T02:16:11;11.43;;;2.93;;
19940;SDS011;10132;50.864;5.176;2022-11-03T02:18:15;10.97;;;2.90;;
19940;SDS011;10132;50.864;5.176;2022-11-03T02:20:20;9.47;;;2.70;;
19940;SDS011;10132;50.864;5.176;2022-11-03T02:24:52;13.57;;;2.87;;
19940;SDS011;10132;50.864;5.176;2022-11-03T02:27:02;8.30;;;3.00;;
19940;SDS011;10132;50.864;5.176;2022-11-03T02:29:04;12.27;;;3.00;;
19940;SDS011;10132;50.864;5.176;2022-11-03T02:31:08;9.60;;;2.97;;
19940;SDS011;10132;50.864;5.176;2022-11-03T02:33:18;9.60;;;2.87;;
19940;SDS011;10132;50.864;5.176;2022-11-03T02:35:28;9.17;;;2.90;;
19940;SDS011;10132;50.864;5.176;2022-11-03T02:37:39;13.83;;;3.20;;
19940;SDS011;10132;50.864;5.176;2022-11-03T02:39:44;10.87;;;3.30;;
19940;SDS011;10132;50.864;5.176;2022-11-03T02:41:49;9.63;;;2.90;;
19940;SDS011;10132;50.864;5.176;2022-11-03T02:43:54;11.33;;;3.37;;
19940;SDS011;10132;50.864;5.176;2022-11-03T02:45:57;12.33;;;3.03;;
19940;SDS011;10132;50.864;5.176;2022-11-03T02:48:01;9.90;;;3.10;;
19940;SDS011;10132;50.864;5.176;2022-11-03T02:50:05;10.90;;;2.80;;
19940;SDS011;10132;50.864;5.176;2022-11-03T02:54:38;12.27;;;3.33;;
19940;SDS011;10132;50.864;5.176;2022-11-03T02:56:45;14.03;;;4.00;;
19940;SDS011;10132;50.864;5.176;2022-11-03T02:58:52;9.93;;;3.30;;
19940;SDS011;10132;50.864;5.176;2022-11-03T03:01:02;10.33;;;3.37;;
19940;SDS011;10132;50.864;5.176;2022-11-03T03:03:15;12.33;;;3.13;;
19940;SDS011;10132;50.864;5.176;2022-11-03T03:05:23;11.43;;;3.20;;
19940;SDS011;10132;50.864;5.176;2022-11-03T03:07:28;12.90;;;3.57;;
19940;SDS011;10132;50.864;5.176;2022-11-03T03:09:36;11.53;;;3.40;;
19940;SDS011;10132;50.864;5.176;2022-11-03T03:11:41;11.67;;;3.70;;
19940;SDS011;10132;50.864;5.176;2022-11-03T03:13:45;10.17;;;3.50;;
19940;SDS011;10132;50.864;5.176;2022-11-03T03:15:52;13.47;;;3.07;;
19940;SDS011;10132;50.864;5.176;2022-11-03T03:18:04;10.30;;;3.00;;
19940;SDS011;10132;50.864;5.176;2022-11-03T03:20:13;10.23;;;3.40;;
19940;SDS011;10132;50.864;5.176;2022-11-03T03:22:21;10.87;;;3.47;;
19940;SDS011;10132;50.864;5.176;2022-11-03T03:24:30;11.47;;;3.00;;
19940;SDS011;10132;50.864;5.176;2022-11-03T03:26:38;10.40;;;3.20;;
19940;SDS011;10132;50.864;5.176;2022-11-03T03:28:45;7.37;;;2.67;;
19940;SDS011;10132;50.864;5.176;2022-11-03T03:30:53;10.87;;;2.90;;
19940;SDS011;10132;50.864;5.176;2022-11-03T03:32:57;10.43;;;3.00;;
19940;SDS011;10132;50.864;5.176;2022-11-03T03:35:01;14.10;;;3.13;;
19940;SDS011;10132;50.864;5.176;2022-11-03T03:37:06;7.97;;;2.80;;
19940;SDS011;10132;50.864;5.176;2022-11-03T03:39:11;12.23;;;2.80;;
19940;SDS011;10132;50.864;5.176;2022-11-03T03:41:15;14.50;;;2.90;;
19940;SDS011;10132;50.864;5.176;2022-11-03T03:43:21;10.23;;;3.23;;
19940;SDS011;10132;50.864;5.176;2022-11-03T03:45:26;11.00;;;2.97;;
19940;SDS011;10132;50.864;5.176;2022-11-03T03:47:31;11.03;;;3.00;;
19940;SDS011;10132;50.864;5.176;2022-11-03T03:49:35;10.67;;;2.70;;
19940;SDS011;10132;50.864;5.176;2022-11-03T03:51:37;11.03;;;2.73;;
19940;SDS011;10132;50.864;5.176;2022-11-03T03:53:39;8.37;;;2.30;;
19940;SDS011;10132;50.864;5.176;2022-11-03T03:55:42;9.47;;;2.63;;
19940;SDS011;10132;50.864;5.176;2022-11-03T03:57:46;9.87;;;3.07;;
19940;SDS011;10132;50.864;5.176;2022-11-03T03:59:48;13.17;;;2.83;;
19940;SDS011;10132;50.864;5.176;2022-11-03T04:01:50;10.10;;;2.67;;
19940;SDS011;10132;50.864;5.176;2022-11-03T04:03:54;7.77;;;2.60;;
19940;SDS011;10132;50.864;5.176;2022-11-03T04:05:56;10.00;;;2.60;;
19940;SDS011;10132;50.864;5.176;2022-11-03T04:07:57;8.53;;;2.23;;
19940;SDS011;10132;50.864;5.176;2022-11-03T04:09:58;10.87;;;2.60;;
19940;SDS011;10132;50.864;5.176;2022-11-03T04:12:00;11.10;;;2.60;;
19940;SDS011;10132;50.864;5.176;2022-11-03T04:14:20;10.97;;;3.33;;
19940;SDS011;10132;50.864;5.176;2022-11-03T04:16:39;6.90;;;2.60;;
19940;SDS011;10132;50.864;5.176;2022-11-03T04:19:00;10.77;;;2.90;;
19940;SDS011;10132;50.864;5.176;2022-11-03T04:21:19;11.80;;;3.00;;
19940;SDS011;10132;50.864;5.176;2022-11-03T04:23:38;13.17;;;3.07;;
19940;SDS011;10132;50.864;5.176;2022-11-03T04:25:40;12.10;;;2.50;;
19940;SDS011;10132;50.864;5.176;2022-11-03T04:27:43;14.13;;;3.10;;
19940;SDS011;10132;50.864;5.176;2022-11-03T04:29:44;8.13;;;2.37;;
19940;SDS011;10132;50.864;5.176;2022-11-03T04:31:46;10.60;;;2.87;;
19940;SDS011;10132;50.864;5.176;2022-11-03T04:33:48;13.83;;;3.03;;
19940;SDS011;10132;50.864;5.176;2022-11-03T04:35:53;14.90;;;2.70;;
19940;SDS011;10132;50.864;5.176;2022-11-03T04:37:59;14.93;;;3.03;;
19940;SDS011;10132;50.864;5.176;2022-11-03T04:40:05;10.67;;;3.00;;
19940;SDS011;10132;50.864;5.176;2022-11-03T04:42:14;8.20;;;3.13;;
19940;SDS011;10132;50.864;5.176;2022-11-03T04:44:18;11.63;;;3.70;;
19940;SDS011;10132;50.864;5.176;2022-11-03T04:46:22;13.10;;;4.63;;
19940;SDS011;10132;50.864;5.176;2022-11-03T04:48:26;17.80;;;4.67;;
19940;SDS011;10132;50.864;5.176;2022-11-03T04:50:29;11.67;;;4.03;;
19940;SDS011;10132;50.864;5.176;2022-11-03T04:52:32;14.33;;;4.20;;
19940;SDS011;10132;50.864;5.176;2022-11-03T04:54:34;9.17;;;3.07;;
19940;SDS011;10132;50.864;5.176;2022-11-03T04:56:36;14.50;;;4.00;;
19940;SDS011;10132;50.864;5.176;2022-11-03T04:58:40;13.13;;;4.40;;
19940;SDS011;10132;50.864;5.176;2022-11-03T05:00:42;9.63;;;3.60;;
19940;SDS011;10132;50.864;5.176;2022-11-03T05:02:44;16.17;;;4.13;;
19940;SDS011;10132;50.864;5.176;2022-11-03T05:04:48;10.53;;;3.40;;
19940;SDS011;10132;50.864;5.176;2022-11-03T05:06:50;13.07;;;4.03;;
19940;SDS011;10132;50.864;5.176;2022-11-03T05:08:55;12.40;;;3.43;;
19940;SDS011;10132;50.864;5.176;2022-11-03T05:11:00;11.97;;;3.43;;
19940;SDS011;10132;50.864;5.176;2022-11-03T05:13:14;8.50;;;2.57;;
19940;SDS011;10132;50.864;5.176;2022-11-03T05:15:26;13.87;;;3.20;;
19940;SDS011;10132;50.864;5.176;2022-11-03T05:17:30;11.77;;;3.50;;
19940;SDS011;10132;50.864;5.176;2022-11-03T05:19:32;10.17;;;2.90;;
19940;SDS011;10132;50.864;5.176;2022-11-03T05:21:37;12.47;;;2.93;;
19940;SDS011;10132;50.864;5.176;2022-11-03T05:23:40;8.37;;;2.63;;
19940;SDS011;10132;50.864;5.176;2022-11-03T05:25:46;10.63;;;2.47;;
19940;SDS011;10132;50.864;5.176;2022-11-03T05:27:49;8.63;;;2.57;;
19940;SDS011;10132;50.864;5.176;2022-11-03T05:29:51;9.10;;;2.60;;
19940;SDS011;10132;50.864;5.176;2022-11-03T05:31:54;9.17;;;2.80;;
19940;SDS011;10132;50.864;5.176;2022-11-03T05:33:57;11.57;;;3.10;;
19940;SDS011;10132;50.864;5.176;2022-11-03T05:36:02;10.37;;;2.60;;
19940;SDS011;10132;50.864;5.176;2022-11-03T05:38:13;14.93;;;3.40;;
19940;SDS011;10132;50.864;5.176;2022-11-03T05:40:20;12.67;;;2.43;;
19940;SDS011;10132;50.864;5.176;2022-11-03T05:42:27;14.30;;;3.00;;
19940;SDS011;10132;50.864;5.176;2022-11-03T05:44:35;12.80;;;2.83;;
19940;SDS011;10132;50.864;5.176;2022-11-03T05:46:38;9.30;;;2.70;;
19940;SDS011;10132;50.864;5.176;2022-11-03T05:48:40;12.73;;;2.93;;
19940;SDS011;10132;50.864;5.176;2022-11-03T05:50:43;8.50;;;2.47;;
19940;SDS011;10132;50.864;5.176;2022-11-03T05:52:46;9.90;;;2.47;;
19940;SDS011;10132;50.864;5.176;2022-11-03T05:54:51;12.43;;;3.63;;
19940;SDS011;10132;50.864;5.176;2022-11-03T05:56:55;11.87;;;2.67;;
19940;SDS011;10132;50.864;5.176;2022-11-03T05:58:58;14.40;;;2.93;;
19940;SDS011;10132;50.864;5.176;2022-11-03T06:01:03;10.57;;;3.50;;
19940;SDS011;10132;50.864;5.176;2022-11-03T06:03:12;10.40;;;2.63;;
19940;SDS011;10132;50.864;5.176;2022-11-03T06:05:19;12.83;;;3.50;;
19940;SDS011;10132;50.864;5.176;2022-11-03T06:07:22;7.07;;;2.07;;
19940;SDS011;10132;50.864;5.176;2022-11-03T06:09:26;12.80;;;2.40;;
19940;SDS011;10132;50.864;5.176;2022-11-03T06:11:30;10.87;;;2.77;;
19940;SDS011;10132;50.864;5.176;2022-11-03T06:13:36;9.70;;;2.43;;
19940;SDS011;10132;50.864;5.176;2022-11-03T06:15:41;7.33;;;2.60;;
19940;SDS011;10132;50.864;5.176;2022-11-03T06:17:45;8.30;;;2.60;;
19940;SDS011;10132;50.864;5.176;2022-11-03T06:19:48;11.73;;;2.73;;
19940;SDS011;10132;50.864;5.176;2022-11-03T06:21:53;8.37;;;2.70;;
19940;SDS011;10132;50.864;5.176;2022-11-03T06:23:57;9.73;;;2.33;;
19940;SDS011;10132;50.864;5.176;2022-11-03T06:25:59;10.77;;;2.40;;
19940;SDS011;10132;50.864;5.176;2022-11-03T06:28:03;10.10;;;2.80;;
19940;SDS011;10132;50.864;5.176;2022-11-03T06:30:13;8.80;;;2.47;;
19940;SDS011;10132;50.864;5.176;2022-11-03T06:32:22;9.73;;;2.23;;
19940;SDS011;10132;50.864;5.176;2022-11-03T06:34:28;9.77;;;2.30;;
19940;SDS011;10132;50.864;5.176;2022-11-03T06:36:34;7.30;;;2.10;;
19940;SDS011;10132;50.864;5.176;2022-11-03T06:38:37;8.83;;;2.57;;
19940;SDS011;10132;50.864;5.176;2022-11-03T06:40:39;9.50;;;2.20;;
19940;SDS011;10132;50.864;5.176;2022-11-03T06:42:41;8.73;;;2.00;;
19940;SDS011;10132;50.864;5.176;2022-11-03T06:44:44;8.30;;;2.67;;
19940;SDS011;10132;50.864;5.176;2022-11-03T06:46:47;7.47;;;2.33;;
19940;SDS011;10132;50.864;5.176;2022-11-03T06:48:51;9.57;;;2.40;;
19940;SDS011;10132;50.864;5.176;2022-11-03T06:50:55;7.97;;;2.20;;
19940;SDS011;10132;50.864;5.176;2022-11-03T06:53:00;8.53;;;2.17;;
19940;SDS011;10132;50.864;5.176;2022-11-03T06:55:12;9.40;;;2.53;;
19940;SDS011;10132;50.864;5.176;2022-11-03T06:57:22;8.10;;;2.50;;
19940;SDS011;10132;50.864;5.176;2022-11-03T06:59:24;9.13;;;2.30;;
19940;SDS011;10132;50.864;5.176;2022-11-03T07:01:28;7.70;;;2.10;;
19940;SDS011;10132;50.864;5.176;2022-11-03T07:03:32;11.00;;;2.43;;
19940;SDS011;10132;50.864;5.176;2022-11-03T07:05:38;6.53;;;2.13;;
19940;SDS011;10132;50.864;5.176;2022-11-03T07:07:40;8.83;;;2.10;;
19940;SDS011;10132;50.864;5.176;2022-11-03T07:09:43;8.10;;;2.30;;
19940;SDS011;10132;50.864;5.176;2022-11-03T07:11:46;12.70;;;2.43;;
19940;SDS011;10132;50.864;5.176;2022-11-03T07:13:51;7.67;;;2.43;;
19940;SDS011;10132;50.864;5.176;2022-11-03T07:15:55;10.40;;;2.33;;
19940;SDS011;10132;50.864;5.176;2022-11-03T07:17:57;8.20;;;2.10;;
19940;SDS011;10132;50.864;5.176;2022-11-03T07:20:00;8.07;;;2.20;;
19940;SDS011;10132;50.864;5.176;2022-11-03T07:22:05;9.90;;;2.73;;
19940;SDS011;10132;50.864;5.176;2022-11-03T07:24:15;6.80;;;2.03;;
19940;SDS011;10132;50.864;5.176;2022-11-03T07:26:21;9.53;;;2.67;;
19940;SDS011;10132;50.864;5.176;2022-11-03T07:28:24;7.90;;;2.10;;
19940;SDS011;10132;50.864;5.176;2022-11-03T07:30:32;6.93;;;2.30;;
19940;SDS011;10132;50.864;5.176;2022-11-03T07:32:36;8.40;;;2.40;;
19940;SDS011;10132;50.864;5.176;2022-11-03T07:34:39;9.27;;;2.33;;
19940;SDS011;10132;50.864;5.176;2022-11-03T07:36:41;7.77;;;2.13;;
19940;SDS011;10132;50.864;5.176;2022-11-03T07:38:47;7.63;;;2.13;;
19940;SDS011;10132;50.864;5.176;2022-11-03T07:40:51;9.00;;;2.40;;
19940;SDS011;10132;50.864;5.176;2022-11-03T07:42:54;10.90;;;2.57;;
19940;SDS011;10132;50.864;5.176;2022-11-03T07:44:59;8.47;;;2.23;;
19940;SDS011;10132;50.864;5.176;2022-11-03T07:47:01;9.80;;;2.40;;
19940;SDS011;10132;50.864;5.176;2022-11-03T07:49:04;9.17;;;2.47;;
19940;SDS011;10132;50.864;5.176;2022-11-03T07:51:13;5.70;;;1.80;;
19940;SDS011;10132;50.864;5.176;2022-11-03T07:53:21;9.30;;;2.47;;
19940;SDS011;10132;50.864;5.176;2022-11-03T07:55:33;8.33;;;2.33;;
19940;SDS011;10132;50.864;5.176;2022-11-03T07:57:35;6.97;;;1.80;;
19940;SDS011;10132;50.864;5.176;2022-11-03T07:59:38;5.37;;;1.97;;
19940;SDS011;10132;50.864;5.176;2022-11-03T08:01:43;8.63;;;2.00;;
19940;SDS011;10132;50.864;5.176;2022-11-03T08:03:48;6.70;;;2.17;;
19940;SDS011;10132;50.864;5.176;2022-11-03T08:05:50;7.67;;;1.87;;
19940;SDS011;10132;50.864;5.176;2022-11-03T08:07:52;7.63;;;1.80;;
19940;SDS011;10132;50.864;5.176;2022-11-03T08:09:54;8.97;;;2.77;;
19940;SDS011;10132;50.864;5.176;2022-11-03T08:11:57;7.23;;;2.50;;
19940;SDS011;10132;50.864;5.176;2022-11-03T08:14:00;6.17;;;1.97;;
19940;SDS011;10132;50.864;5.176;2022-11-03T08:16:02;8.07;;;2.30;;
19940;SDS011;10132;50.864;5.176;2022-11-03T08:18:04;6.73;;;1.70;;
19940;SDS011;10132;50.864;5.176;2022-11-03T08:20:06;7.30;;;1.90;;
19940;SDS011;10132;50.864;5.176;2022-11-03T08:22:09;9.60;;;2.20;;
19940;SDS011;10132;50.864;5.176;2022-11-03T08:24:11;6.23;;;1.90;;
19940;SDS011;10132;50.864;5.176;2022-11-03T08:26:13;5.80;;;1.90;;
19940;SDS011;10132;50.864;5.176;2022-11-03T08:28:16;6.90;;;2.00;;
19940;SDS011;10132;50.864;5.176;2022-11-03T08:30:18;8.00;;;2.30;;
19940;SDS011;10132;50.864;5.176;2022-11-03T08:32:20;7.87;;;1.73;;
19940;SDS011;10132;50.864;5.176;2022-11-03T08:34:22;6.23;;;2.00;;
19940;SDS011;10132;50.864;5.176;2022-11-03T08:36:24;7.57;;;2.20;;
19940;SDS011;10132;50.864;5.176;2022-11-03T08:38:26;6.47;;;2.17;;
19940;SDS011;10132;50.864;5.176;2022-11-03T08:40:28;7.23;;;1.87;;
19940;SDS011;10132;50.864;5.176;2022-11-03T08:42:30;7.57;;;2.10;;
19940;SDS011;10132;50.864;5.176;2022-11-03T08:44:33;6.87;;;2.17;;
19940;SDS011;10132;50.864;5.176;2022-11-03T08:46:35;8.63;;;2.20;;
19940;SDS011;10132;50.864;5.176;2022-11-03T08:48:37;6.80;;;2.10;;
19940;SDS011;10132;50.864;5.176;2022-11-03T08:50:39;8.87;;;2.20;;
19940;SDS011;10132;50.864;5.176;2022-11-03T08:52:41;5.27;;;1.83;;
19940;SDS011;10132;50.864;5.176;2022-11-03T08:54:43;8.90;;;2.00;;
19940;SDS011;10132;50.864;5.176;2022-11-03T08:56:44;6.17;;;2.10;;
19940;SDS011;10132;50.864;5.176;2022-11-03T08:58:47;9.37;;;2.20;;
19940;SDS011;10132;50.864;5.176;2022-11-03T09:00:51;8.63;;;2.20;;
19940;SDS011;10132;50.864;5.176;2022-11-03T09:02:53;7.33;;;2.17;;
19940;SDS011;10132;50.864;5.176;2022-11-03T09:04:55;4.90;;;1.67;;
19940;SDS011;10132;50.864;5.176;2022-11-03T09:06:57;5.70;;;1.93;;
19940;SDS011;10132;50.864;5.176;2022-11-03T09:08:59;6.43;;;2.13;;
19940;SDS011;10132;50.864;5.176;2022-11-03T09:11:01;6.53;;;2.17;;
19940;SDS011;10132;50.864;5.176;2022-11-03T09:13:03;7.80;;;2.17;;
19940;SDS011;10132;50.864;5.176;2022-11-03T09:15:05;7.07;;;1.83;;
19940;SDS011;10132;50.864;5.176;2022-11-03T09:17:09;7.67;;;2.43;;
19940;SDS011;10132;50.864;5.176;2022-11-03T09:19:11;5.33;;;2.03;;
19940;SDS011;10132;50.864;5.176;2022-11-03T09:21:13;3.93;;;1.93;;
19940;SDS011;10132;50.864;5.176;2022-11-03T09:23:15;7.90;;;2.10;;
19940;SDS011;10132;50.864;5.176;2022-11-03T09:25:17;4.97;;;1.80;;
19940;SDS011;10132;50.864;5.176;2022-11-03T09:27:19;7.77;;;2.33;;
19940;SDS011;10132;50.864;5.176;2022-11-03T09:29:21;7.00;;;1.97;;
19940;SDS011;10132;50.864;5.176;2022-11-03T09:31:22;7.33;;;1.73;;
19940;SDS011;10132;50.864;5.176;2022-11-03T09:33:28;6.47;;;1.87;;
19940;SDS011;10132;50.864;5.176;2022-11-03T09:35:31;7.70;;;1.97;;
19940;SDS011;10132;50.864;5.176;2022-11-03T09:37:33;8.87;;;2.10;;
19940;SDS011;10132;50.864;5.176;2022-11-03T09:39:35;7.17;;;2.03;;
19940;SDS011;10132;50.864;5.176;2022-11-03T09:41:37;6.63;;;1.80;;
19940;SDS011;10132;50.864;5.176;2022-11-03T09:43:40;8.03;;;1.83;;
19940;SDS011;10132;50.864;5.176;2022-11-03T09:45:42;7.37;;;2.30;;
19940;SDS011;10132;50.864;5.176;2022-11-03T09:47:44;5.97;;;1.90;;
19940;SDS011;10132;50.864;5.176;2022-11-03T09:49:47;11.43;;;1.90;;
19940;SDS011;10132;50.864;5.176;2022-11-03T09:51:49;6.53;;;2.37;;
19940;SDS011;10132;50.864;5.176;2022-11-03T09:53:54;7.70;;;2.00;;
19940;SDS011;10132;50.864;5.176;2022-11-03T09:55:58;8.87;;;1.90;;
19940;SDS011;10132;50.864;5.176;2022-11-03T09:58:01;8.00;;;1.83;;
19940;SDS011;10132;50.864;5.176;2022-11-03T10:00:15;5.97;;;1.93;;
19940;SDS011;10132;50.864;5.176;2022-11-03T10:02:19;7.80;;;1.90;;
19940;SDS011;10132;50.864;5.176;2022-11-03T10:04:25;7.87;;;2.40;;
19940;SDS011;10132;50.864;5.176;2022-11-03T10:06:30;8.13;;;1.80;;
19940;SDS011;10132;50.864;5.176;2022-11-03T10:08:33;7.37;;;1.97;;
19940;SDS011;10132;50.864;5.176;2022-11-03T10:10:38;5.80;;;1.80;;
19940;SDS011;10132;50.864;5.176;2022-11-03T10:12:40;5.43;;;1.90;;
19940;SDS011;10132;50.864;5.176;2022-11-03T10:14:43;8.33;;;2.10;;
19940;SDS011;10132;50.864;5.176;2022-11-03T10:16:49;8.83;;;2.00;;
19940;SDS011;10132;50.864;5.176;2022-11-03T10:18:53;6.37;;;2.10;;
19940;SDS011;10132;50.864;5.176;2022-11-03T10:20:55;6.17;;;2.00;;
19940;SDS011;10132;50.864;5.176;2022-11-03T10:23:02;6.23;;;2.03;;
19940;SDS011;10132;50.864;5.176;2022-11-03T10:27:30;6.50;;;1.97;;
19940;SDS011;10132;50.864;5.176;2022-11-03T10:29:32;9.23;;;2.17;;
19940;SDS011;10132;50.864;5.176;2022-11-03T10:31:34;5.57;;;2.10;;
19940;SDS011;10132;50.864;5.176;2022-11-03T10:33:38;6.30;;;2.27;;
19940;SDS011;10132;50.864;5.176;2022-11-03T10:35:40;6.20;;;1.83;;
19940;SDS011;10132;50.864;5.176;2022-11-03T10:37:43;5.60;;;1.83;;
19940;SDS011;10132;50.864;5.176;2022-11-03T10:39:46;5.70;;;2.13;;
19940;SDS011;10132;50.864;5.176;2022-11-03T10:41:54;7.20;;;2.67;;
19940;SDS011;10132;50.864;5.176;2022-11-03T10:44:01;7.73;;;2.50;;
19940;SDS011;10132;50.864;5.176;2022-11-03T10:46:11;9.33;;;2.93;;
19940;SDS011;10132;50.864;5.176;2022-11-03T10:48:16;6.53;;;2.50;;
19940;SDS011;10132;50.864;5.176;2022-11-03T10:50:19;6.23;;;1.90;;
19940;SDS011;10132;50.864;5.176;2022-11-03T10:52:23;6.53;;;1.80;;
19940;SDS011;10132;50.864;5.176;2022-11-03T10:54:25;5.60;;;2.03;;
19940;SDS011;10132;50.864;5.176;2022-11-03T10:56:30;6.93;;;1.80;;
19940;SDS011;10132;50.864;5.176;2022-11-03T10:58:33;4.37;;;2.00;;
19940;SDS011;10132;50.864;5.176;2022-11-03T11:00:36;4.27;;;1.63;;
19940;SDS011;10132;50.864;5.176;2022-11-03T11:02:41;5.80;;;1.77;;
19940;SDS011;10132;50.864;5.176;2022-11-03T11:04:45;5.77;;;1.73;;
19940;SDS011;10132;50.864;5.176;2022-11-03T11:06:48;6.77;;;1.87;;
19940;SDS011;10132;50.864;5.176;2022-11-03T11:08:52;5.80;;;2.20;;
19940;SDS011;10132;50.864;5.176;2022-11-03T11:10:56;8.37;;;2.00;;
19940;SDS011;10132;50.864;5.176;2022-11-03T11:13:10;8.47;;;2.17;;
19940;SDS011;10132;50.864;5.176;2022-11-03T11:17:50;6.67;;;1.93;;
19940;SDS011;10132;50.864;5.176;2022-11-03T11:22:21;4.87;;;1.53;;
19940;SDS011;10132;50.864;5.176;2022-11-03T11:27:00;7.27;;;1.77;;
19940;SDS011;10132;50.864;5.176;2022-11-03T11:31:42;5.20;;;1.60;;
19940;SDS011;10132;50.864;5.176;2022-11-03T11:33:44;5.33;;;1.70;;
19940;SDS011;10132;50.864;5.176;2022-11-03T11:41:05;6.53;;;2.07;;
19940;SDS011;10132;50.864;5.176;2022-11-03T11:43:25;5.13;;;1.73;;
19940;SDS011;10132;50.864;5.176;2022-11-03T11:48:13;4.27;;;1.60;;
19940;SDS011;10132;50.864;5.176;2022-11-03T11:50:27;5.50;;;1.83;;
19940;SDS011;10132;50.864;5.176;2022-11-03T11:52:30;3.63;;;1.60;;
19940;SDS011;10132;50.864;5.176;2022-11-03T11:54:34;5.53;;;1.67;;
19940;SDS011;10132;50.864;5.176;2022-11-03T11:56:39;4.77;;;1.77;;
19940;SDS011;10132;50.864;5.176;2022-11-03T11:58:43;5.57;;;1.50;;
19940;SDS011;10132;50.864;5.176;2022-11-03T12:00:51;4.93;;;1.47;;
19940;SDS011;10132;50.864;5.176;2022-11-03T12:02:57;3.87;;;1.80;;
19940;SDS011;10132;50.864;5.176;2022-11-03T12:05:03;5.73;;;1.83;;
19940;SDS011;10132;50.864;5.176;2022-11-03T12:07:10;6.57;;;1.70;;
19940;SDS011;10132;50.864;5.176;2022-11-03T12:09:16;4.30;;;1.50;;
19940;SDS011;10132;50.864;5.176;2022-11-03T12:11:39;4.47;;;1.57;;
19940;SDS011;10132;50.864;5.176;2022-11-03T12:13:42;5.10;;;1.50;;
19940;SDS011;10132;50.864;5.176;2022-11-03T12:15:53;4.73;;;1.70;;
19940;SDS011;10132;50.864;5.176;2022-11-03T12:17:55;4.13;;;1.60;;
19940;SDS011;10132;50.864;5.176;2022-11-03T12:19:57;6.20;;;1.47;;
19940;SDS011;10132;50.864;5.176;2022-11-03T12:22:00;6.40;;;1.57;;
19940;SDS011;10132;50.864;5.176;2022-11-03T12:26:38;6.33;;;1.60;;
19940;SDS011;10132;50.864;5.176;2022-11-03T12:28:41;4.40;;;1.60;;
19940;SDS011;10132;50.864;5.176;2022-11-03T12:30:43;3.93;;;1.40;;
19940;SDS011;10132;50.864;5.176;2022-11-03T12:32:45;4.20;;;1.70;;
19940;SDS011;10132;50.864;5.176;2022-11-03T12:34:48;6.20;;;1.73;;
19940;SDS011;10132;50.864;5.176;2022-11-03T12:36:50;2.77;;;1.50;;
19940;SDS011;10132;50.864;5.176;2022-11-03T12:38:53;5.37;;;1.50;;
19940;SDS011;10132;50.864;5.176;2022-11-03T12:40:55;3.20;;;1.60;;
19940;SDS011;10132;50.864;5.176;2022-11-03T12:42:57;4.27;;;1.70;;
19940;SDS011;10132;50.864;5.176;2022-11-03T12:44:59;4.07;;;1.77;;
19940;SDS011;10132;50.864;5.176;2022-11-03T12:47:01;6.83;;;1.70;;
19940;SDS011;10132;50.864;5.176;2022-11-03T12:49:03;5.27;;;1.50;;
19940;SDS011;10132;50.864;5.176;2022-11-03T12:51:05;4.43;;;1.73;;
19940;SDS011;10132;50.864;5.176;2022-11-03T12:53:07;5.53;;;1.57;;